createdAt,value
2017-09-04T00:02:09.063Z,0
2017-09-04T00:09:14.197Z,0
2017-09-04T00:19:21.545Z,0
2017-09-04T00:21:23.134Z,0
2017-09-04T00:24:25.550Z,0
2017-09-04T00:39:36.771Z,0
2017-09-04T01:04:08.986Z,0
2017-09-04T01:23:52.376Z,0
2017-09-04T01:24:53.358Z,0
2017-09-04T01:25:54.325Z,0
2017-09-04T01:27:55.969Z,0
2017-09-04T01:28:56.895Z,0
2017-09-04T01:41:06.284Z,0
2017-09-04T01:51:13.603Z,0
2017-09-04T01:52:14.550Z,0
2017-09-04T01:57:18.326Z,0
2017-09-04T02:01:21.433Z,0
2017-09-04T02:07:25.794Z,0
2017-09-04T02:10:28.143Z,0
2017-09-04T02:15:31.792Z,0
2017-09-04T02:19:34.886Z,0
2017-09-04T02:21:36.466Z,0
2017-09-04T02:28:41.717Z,0
2017-09-04T02:36:47.671Z,0
2017-09-04T02:37:48.569Z,0
2017-09-04T02:57:02.468Z,0
2017-09-04T03:01:05.482Z,0
2017-09-04T03:03:07.095Z,0
2017-09-04T03:09:11.681Z,0
2017-09-04T03:45:37.382Z,0
2017-09-04T03:56:45.412Z,0
2017-09-04T04:00:48.517Z,0
2017-09-04T04:02:50.164Z,0
2017-09-04T04:09:55.314Z,0
2017-09-04T04:22:04.194Z,20
2017-09-04T04:24:05.876Z,24
2017-09-04T04:25:06.786Z,28
2017-09-04T04:41:18.374Z,160
2017-09-04T04:46:22.147Z,300
2017-09-04T05:03:34.579Z,1500
2017-09-04T05:14:57.565Z,3500
2017-09-04T05:32:09.772Z,8236
2017-09-04T06:16:56.965Z,23200
2017-09-04T06:40:13.450Z,10088
2017-09-04T07:16:39.572Z,3208
2017-09-04T07:19:41.917Z,3332
2017-09-04T07:23:45.541Z,4380
2017-09-04T07:24:46.364Z,5080
2017-09-04T07:25:47.175Z,5304
2017-09-04T07:26:48.147Z,5320
2017-09-04T07:27:48.855Z,5440
2017-09-04T07:28:49.593Z,5680
2017-09-04T07:29:50.286Z,6260
2017-09-04T07:30:51.134Z,7352
2017-09-04T07:31:51.931Z,8348
2017-09-04T07:32:52.676Z,8908
2017-09-04T07:33:53.494Z,9056
2017-09-04T07:34:54.255Z,8324
2017-09-04T07:35:54.946Z,8604
2017-09-04T07:36:55.654Z,8652
2017-09-04T07:37:56.396Z,8836
2017-09-04T07:38:57.116Z,9008
2017-09-04T07:39:57.808Z,9076
2017-09-04T07:40:58.776Z,9128
2017-09-04T07:41:59.683Z,9212
2017-09-04T07:43:00.433Z,9212
2017-09-04T07:44:01.281Z,9208
2017-09-04T07:45:02.057Z,9208
2017-09-04T07:46:02.809Z,9088
2017-09-04T07:47:03.567Z,9156
2017-09-04T07:48:04.326Z,9268
2017-09-04T07:49:05.030Z,9348
2017-09-04T07:50:05.744Z,9632
2017-09-04T07:51:06.459Z,10376
2017-09-04T07:52:07.218Z,10696
2017-09-04T07:53:08.008Z,10656
2017-09-04T07:54:08.769Z,10668
2017-09-04T07:55:09.503Z,10928
2017-09-04T07:56:10.334Z,11148
2017-09-04T07:57:11.040Z,11180
2017-09-04T07:58:11.875Z,11276
2017-09-04T07:59:12.629Z,11412
2017-09-04T08:00:13.418Z,11472
2017-09-04T08:01:14.208Z,11568
2017-09-04T08:02:14.925Z,11572
2017-09-04T08:03:15.678Z,11564
2017-09-04T08:04:16.430Z,11208
2017-09-04T08:05:17.683Z,10852
2017-09-04T08:06:18.442Z,10496
2017-09-04T08:07:19.180Z,10432
2017-09-04T08:08:19.934Z,10356
2017-09-04T08:09:20.654Z,10476
2017-09-04T08:10:21.401Z,11952
2017-09-04T08:11:22.107Z,21440
2017-09-04T08:12:22.838Z,43008
2017-09-04T08:13:23.562Z,52928
2017-09-04T08:14:24.317Z,61056
2017-09-04T08:15:25.021Z,62528
2017-09-04T08:16:25.780Z,61248
2017-09-04T08:17:26.531Z,60768
2017-09-04T08:18:27.259Z,59104
2017-09-04T08:19:28.050Z,40512
2017-09-04T08:20:28.743Z,23904
2017-09-04T08:21:29.464Z,10864
2017-09-04T08:22:30.230Z,8876
2017-09-04T08:23:31.161Z,9376
2017-09-04T08:24:31.916Z,8496
2017-09-04T08:25:32.636Z,8316
2017-09-04T08:26:33.441Z,8172
2017-09-04T08:27:34.276Z,8132
2017-09-04T08:28:34.995Z,7860
2017-09-04T08:29:35.705Z,7708
2017-09-04T08:30:36.492Z,7552
2017-09-04T08:31:37.210Z,7400
2017-09-04T08:32:37.937Z,7704
2017-09-04T08:33:38.651Z,7228
2017-09-04T08:34:39.434Z,7044
2017-09-04T08:35:40.188Z,7004
2017-09-04T08:36:40.947Z,6928
2017-09-04T08:37:41.686Z,6776
2017-09-04T08:38:42.457Z,6716
2017-09-04T08:39:43.204Z,6652
2017-09-04T08:40:43.969Z,6596
2017-09-04T08:41:44.760Z,6568
2017-09-04T08:42:45.522Z,6448
2017-09-04T08:43:46.235Z,6620
2017-09-04T08:44:47.052Z,6664
2017-09-04T08:45:47.923Z,6620
2017-09-04T08:46:48.725Z,6764
2017-09-04T08:47:49.419Z,7040
2017-09-04T08:48:50.138Z,7020
2017-09-04T08:49:50.859Z,7116
2017-09-04T08:50:51.630Z,7004
2017-09-04T08:51:52.403Z,7048
2017-09-04T08:52:53.110Z,6876
2017-09-04T08:53:53.976Z,6676
2017-09-04T08:54:54.708Z,6424
2017-09-04T08:55:55.432Z,6112
2017-09-04T08:56:56.129Z,5724
2017-09-04T08:57:56.868Z,5372
2017-09-04T08:58:57.639Z,5032
2017-09-04T08:59:58.355Z,4800
2017-09-04T09:00:59.254Z,4628
2017-09-04T09:02:00.028Z,4536
2017-09-04T09:03:00.778Z,4340
2017-09-04T09:04:01.487Z,4224
2017-09-04T09:05:02.210Z,4016
2017-09-04T09:06:02.932Z,3864
2017-09-04T09:07:03.684Z,3688
2017-09-04T09:08:04.423Z,3576
2017-09-04T09:09:05.201Z,3424
2017-09-04T09:10:05.925Z,3376
2017-09-04T09:11:06.702Z,3388
2017-09-04T09:12:07.475Z,3380
2017-09-04T09:13:08.289Z,3408
2017-09-04T09:14:09.055Z,3432
2017-09-04T09:15:09.953Z,3388
2017-09-04T09:16:10.728Z,3292
2017-09-04T09:17:11.390Z,3108
2017-09-04T09:18:12.146Z,3016
2017-09-04T09:19:12.838Z,2924
2017-09-04T09:20:13.587Z,2876
2017-09-04T09:21:14.279Z,2824
2017-09-04T09:22:15.018Z,2772
2017-09-04T09:23:15.757Z,2776
2017-09-04T09:24:16.499Z,2788
2017-09-04T09:26:33.050Z,2876
2017-09-04T09:27:33.833Z,2880
2017-09-04T09:28:34.520Z,2728
2017-09-04T09:29:35.328Z,2732
2017-09-04T09:30:36.373Z,2712
2017-09-04T09:31:37.442Z,2684
2017-09-04T09:32:38.242Z,2644
2017-09-04T09:33:38.998Z,2652
2017-09-04T09:34:39.770Z,2620
2017-09-04T09:35:40.499Z,2624
2017-09-04T09:36:41.248Z,2600
2017-09-04T09:37:41.956Z,2588
2017-09-04T09:38:42.689Z,2584
2017-09-04T09:39:43.431Z,2576
2017-09-04T09:40:44.135Z,2584
2017-09-04T09:41:44.885Z,2524
2017-09-04T09:42:45.663Z,1388
2017-09-04T09:43:46.445Z,2560
2017-09-04T09:44:47.149Z,2572
2017-09-04T09:45:47.884Z,1492
2017-09-04T09:46:48.632Z,1452
2017-09-04T09:47:49.399Z,2628
2017-09-04T09:48:50.150Z,2604
2017-09-04T09:49:50.886Z,2624
2017-09-04T09:50:51.575Z,1452
2017-09-04T09:51:52.283Z,1360
2017-09-04T09:52:53.052Z,1416
2017-09-04T09:53:53.776Z,1524
2017-09-04T09:54:54.486Z,1324
2017-09-04T09:55:55.262Z,1380
2017-09-04T09:56:55.986Z,1312
2017-09-04T09:57:56.815Z,2512
2017-09-04T09:58:57.511Z,2504
2017-09-04T09:59:58.242Z,2520
2017-09-04T10:00:59.248Z,2500
2017-09-04T10:01:59.997Z,2528
2017-09-04T10:03:00.715Z,2656
2017-09-04T10:04:01.496Z,2640
2017-09-04T10:05:02.296Z,2564
2017-09-04T10:06:02.955Z,2548
2017-09-04T10:07:03.678Z,2552
2017-09-04T10:08:04.383Z,2592
2017-09-04T10:09:05.186Z,2544
2017-09-04T10:10:05.908Z,2620
2017-09-04T10:11:06.669Z,2720
2017-09-04T10:12:07.369Z,2748
2017-09-04T10:13:08.159Z,2668
2017-09-04T10:14:08.887Z,1688
2017-09-04T10:15:09.721Z,2436
2017-09-04T10:16:10.475Z,2236
2017-09-04T10:17:11.211Z,1528
2017-09-04T10:18:11.998Z,1528
2017-09-04T10:19:12.804Z,1488
2017-09-04T10:20:13.497Z,1508
2017-09-04T10:21:14.240Z,1564
2017-09-04T10:22:14.996Z,1600
2017-09-04T10:23:15.702Z,1520
2017-09-04T10:24:16.465Z,1496
2017-09-04T10:25:17.393Z,1512
2017-09-04T10:26:18.050Z,1348
2017-09-04T10:27:18.768Z,1272
2017-09-04T10:28:19.577Z,1188
2017-09-04T10:29:20.366Z,1164
2017-09-04T10:30:21.182Z,1172
2017-09-04T10:31:22.113Z,1172
2017-09-04T10:32:22.816Z,1176
2017-09-04T10:33:23.601Z,1188
2017-09-04T10:34:24.307Z,1236
2017-09-04T10:35:25.034Z,1464
2017-09-04T10:36:25.767Z,1384
2017-09-04T10:37:26.501Z,1456
2017-09-04T10:38:27.288Z,1504
2017-09-04T10:39:28.059Z,1576
2017-09-04T10:40:28.739Z,1492
2017-09-04T10:41:29.578Z,1516
2017-09-04T10:42:30.360Z,1464
2017-09-04T10:43:31.119Z,1472
2017-09-04T10:44:31.855Z,2016
2017-09-04T10:45:32.687Z,1852
2017-09-04T10:46:33.554Z,2040
2017-09-04T10:47:34.266Z,1524
2017-09-04T10:48:35.062Z,1940
2017-09-04T10:49:35.818Z,2008
2017-09-04T10:50:36.827Z,1780
2017-09-04T10:51:37.525Z,1964
2017-09-04T10:52:38.228Z,1352
2017-09-04T10:53:39.020Z,1940
2017-09-04T10:54:39.859Z,1916
2017-09-04T10:55:40.608Z,1936
2017-09-04T10:56:41.378Z,1936
2017-09-04T10:57:42.120Z,1928
2017-09-04T10:58:42.901Z,1912
2017-09-04T10:59:43.571Z,1900
2017-09-04T11:00:44.627Z,1876
2017-09-04T11:01:45.330Z,1848
2017-09-04T11:02:46.058Z,1848
2017-09-04T11:03:46.890Z,1852
2017-09-04T11:04:47.663Z,1156
2017-09-04T11:05:48.544Z,1152
2017-09-04T11:06:49.294Z,1696
2017-09-04T11:07:49.960Z,1372
2017-09-04T11:08:50.801Z,1816
2017-09-04T11:09:51.545Z,1820
2017-09-04T11:10:52.365Z,1880
2017-09-04T11:11:53.063Z,1876
2017-09-04T11:12:53.806Z,1836
2017-09-04T11:13:55.531Z,1796
2017-09-04T11:14:56.272Z,1832
2017-09-04T11:15:57.048Z,1784
2017-09-04T11:16:57.797Z,1772
2017-09-04T11:17:58.438Z,1740
2017-09-04T11:18:59.182Z,1728
2017-09-04T11:19:59.948Z,1716
2017-09-04T11:21:00.670Z,1712
2017-09-04T11:22:01.701Z,1716
2017-09-04T11:23:02.372Z,1712
2017-09-04T11:24:03.177Z,1712
2017-09-04T11:25:03.885Z,1712
2017-09-04T11:26:04.637Z,1712
2017-09-04T11:27:05.361Z,1684
2017-09-04T11:28:06.093Z,1672
2017-09-04T11:29:06.832Z,1656
2017-09-04T11:30:07.576Z,1652
2017-09-04T11:31:08.470Z,1652
2017-09-04T11:32:09.234Z,1668
2017-09-04T11:33:09.998Z,1720
2017-09-04T11:34:10.728Z,1656
2017-09-04T11:35:11.527Z,1672
2017-09-04T11:36:12.195Z,1580
2017-09-04T11:37:12.925Z,1192
2017-09-04T11:38:13.684Z,1148
2017-09-04T11:39:14.402Z,1128
2017-09-04T11:40:15.177Z,1692
2017-09-04T11:41:15.858Z,1668
2017-09-04T11:42:16.627Z,1632
2017-09-04T11:43:17.362Z,1068
2017-09-04T11:44:18.128Z,1108
2017-09-04T11:45:18.896Z,1088
2017-09-04T11:46:19.660Z,1548
2017-09-04T11:47:20.408Z,1572
2017-09-04T11:48:21.118Z,1556
2017-09-04T11:49:21.865Z,1560
2017-09-04T11:50:22.586Z,1556
2017-09-04T11:51:23.346Z,1524
2017-09-04T11:52:24.101Z,1344
2017-09-04T11:53:24.815Z,1024
2017-09-04T11:54:25.519Z,1484
2017-09-04T11:55:26.364Z,1524
2017-09-04T11:56:27.133Z,1536
2017-09-04T11:57:27.923Z,1544
2017-09-04T11:58:28.682Z,1536
2017-09-04T11:59:29.403Z,1552
2017-09-04T12:00:30.221Z,1580
2017-09-04T12:01:30.968Z,1564
2017-09-04T12:02:31.623Z,1540
2017-09-04T12:03:32.399Z,1536
2017-09-04T12:04:33.179Z,1492
2017-09-04T12:05:33.954Z,1484
2017-09-04T12:06:34.732Z,1524
2017-09-04T12:07:35.505Z,1524
2017-09-04T12:08:36.221Z,1508
2017-09-04T12:09:36.951Z,1492
2017-09-04T12:10:37.633Z,1468
2017-09-04T12:11:38.480Z,1472
2017-09-04T12:12:39.172Z,1488
2017-09-04T12:13:39.872Z,1516
2017-09-04T12:14:40.616Z,1488
2017-09-04T12:15:41.355Z,1428
2017-09-04T12:16:42.087Z,1516
2017-09-04T12:17:42.873Z,1528
2017-09-04T12:18:43.576Z,1516
2017-09-04T12:19:44.291Z,1576
2017-09-04T12:20:45.008Z,1536
2017-09-04T12:21:45.730Z,1512
2017-09-04T12:22:46.477Z,1424
2017-09-04T12:23:47.518Z,1388
2017-09-04T12:24:48.232Z,1448
2017-09-04T12:25:48.978Z,1000
2017-09-04T12:26:49.693Z,1044
2017-09-04T12:27:50.470Z,1456
2017-09-04T12:28:51.218Z,1468
2017-09-04T12:29:51.958Z,1036
2017-09-04T12:30:52.658Z,1036
2017-09-04T12:31:53.385Z,988
2017-09-04T12:32:54.149Z,960
2017-09-04T12:33:54.832Z,924
2017-09-04T12:34:55.598Z,904
2017-09-04T12:35:56.342Z,888
2017-09-04T12:36:57.069Z,892
2017-09-04T12:37:57.791Z,1004
2017-09-04T12:38:58.543Z,1404
2017-09-04T12:39:59.311Z,1432
2017-09-04T12:41:00.019Z,1508
2017-09-04T12:42:00.751Z,1504
2017-09-04T12:43:01.532Z,1452
2017-09-04T12:44:02.279Z,1416
2017-09-04T12:45:03.092Z,1400
2017-09-04T12:46:03.775Z,1376
2017-09-04T12:47:04.509Z,1372
2017-09-04T12:48:05.218Z,1364
2017-09-04T12:49:05.958Z,1344
2017-09-04T12:50:07.006Z,1340
2017-09-04T12:51:07.791Z,1348
2017-09-04T12:52:08.500Z,1344
2017-09-04T12:53:09.266Z,1332
2017-09-04T12:54:10.018Z,1328
2017-09-04T12:55:10.806Z,1320
2017-09-04T12:56:11.587Z,1312
2017-09-04T12:57:12.291Z,1300
2017-09-04T12:58:13.087Z,1220
2017-09-04T12:59:13.805Z,1292
2017-09-04T13:00:14.708Z,1096
2017-09-04T13:01:15.537Z,1140
2017-09-04T13:02:16.260Z,1248
2017-09-04T13:03:17.016Z,1248
2017-09-04T13:04:17.800Z,1264
2017-09-04T13:05:18.513Z,1256
2017-09-04T13:06:19.314Z,1248
2017-09-04T13:07:20.067Z,1244
2017-09-04T13:08:20.789Z,1228
2017-09-04T13:09:21.560Z,1236
2017-09-04T13:10:22.229Z,1208
2017-09-04T13:11:23.324Z,1200
2017-09-04T13:12:24.091Z,1192
2017-09-04T13:13:24.831Z,1192
2017-09-04T13:14:25.596Z,1188
2017-09-04T13:15:26.430Z,1192
2017-09-04T13:16:27.542Z,1192
2017-09-04T13:17:28.371Z,1192
2017-09-04T13:18:29.084Z,1200
2017-09-04T13:19:29.825Z,1220
2017-09-04T13:20:30.756Z,1220
2017-09-04T13:21:31.427Z,1224
2017-09-04T13:22:32.250Z,1236
2017-09-04T13:23:33.116Z,1248
2017-09-04T13:24:33.813Z,1268
2017-09-04T13:25:34.626Z,1284
2017-09-04T13:26:35.395Z,1260
2017-09-04T13:27:36.414Z,1256
2017-09-04T13:28:37.250Z,1264
2017-09-04T13:29:38.105Z,1296
2017-09-04T13:30:38.860Z,1328
2017-09-04T13:31:39.589Z,1360
2017-09-04T13:32:40.421Z,1380
2017-09-04T13:33:41.100Z,1408
2017-09-04T13:34:41.850Z,1380
2017-09-04T13:35:42.604Z,1360
2017-09-04T13:36:43.341Z,1336
2017-09-04T13:37:44.116Z,1348
2017-09-04T13:38:44.866Z,1356
2017-09-04T13:39:45.577Z,1336
2017-09-04T13:40:46.293Z,1072
2017-09-04T13:41:47.058Z,1296
2017-09-04T13:42:47.762Z,1296
2017-09-04T13:43:48.609Z,1316
2017-09-04T13:44:49.312Z,1344
2017-09-04T13:45:50.216Z,1328
2017-09-04T13:46:50.998Z,1320
2017-09-04T13:47:51.701Z,1308
2017-09-04T13:48:52.513Z,1272
2017-09-04T13:49:53.324Z,1216
2017-09-04T13:50:54.004Z,1148
2017-09-04T13:51:54.762Z,1136
2017-09-04T13:52:55.536Z,792
2017-09-04T13:53:56.265Z,852
2017-09-04T13:54:56.991Z,800
2017-09-04T13:55:57.735Z,1076
2017-09-04T13:56:58.488Z,1084
2017-09-04T13:57:59.201Z,1092
2017-09-04T13:58:59.898Z,1096
2017-09-04T14:00:00.720Z,1076
2017-09-04T14:01:01.546Z,1080
2017-09-04T14:02:02.290Z,1076
2017-09-04T14:03:03.140Z,1076
2017-09-04T14:04:03.893Z,1068
2017-09-04T14:05:04.643Z,1060
2017-09-04T14:06:05.461Z,1056
2017-09-04T14:07:06.221Z,1072
2017-09-04T14:08:06.987Z,1048
2017-09-04T14:09:07.723Z,1060
2017-09-04T14:10:08.540Z,1072
2017-09-04T14:11:09.273Z,1064
2017-09-04T14:12:10.042Z,1076
2017-09-04T14:13:10.696Z,1088
2017-09-04T14:14:11.447Z,1092
2017-09-04T14:15:12.262Z,1108
2017-09-04T14:16:13.107Z,1116
2017-09-04T14:17:13.862Z,1124
2017-09-04T14:18:14.670Z,1132
2017-09-04T14:19:15.349Z,1108
2017-09-04T14:20:16.145Z,1092
2017-09-04T14:21:16.958Z,1072
2017-09-04T14:22:17.658Z,1044
2017-09-04T14:23:18.351Z,1032
2017-09-04T14:24:19.133Z,1012
2017-09-04T14:25:19.899Z,996
2017-09-04T14:26:20.729Z,984
2017-09-04T14:27:21.478Z,980
2017-09-04T14:28:22.247Z,968
2017-09-04T14:29:22.929Z,964
2017-09-04T14:30:24.022Z,956
2017-09-04T14:31:24.938Z,948
2017-09-04T14:32:25.683Z,936
2017-09-04T14:33:26.540Z,936
2017-09-04T14:34:27.241Z,928
2017-09-04T14:35:28.012Z,928
2017-09-04T14:36:28.713Z,920
2017-09-04T14:37:29.498Z,912
2017-09-04T14:38:30.352Z,916
2017-09-04T14:39:31.226Z,904
2017-09-04T14:40:31.971Z,844
2017-09-04T14:41:32.851Z,896
2017-09-04T14:42:33.570Z,904
2017-09-04T14:43:34.278Z,904
2017-09-04T14:44:34.972Z,896
2017-09-04T14:45:35.747Z,888
2017-09-04T14:46:36.680Z,892
2017-09-04T14:47:37.713Z,888
2017-09-04T14:48:38.452Z,876
2017-09-04T14:49:39.229Z,884
2017-09-04T14:50:40.067Z,880
2017-09-04T14:51:40.790Z,868
2017-09-04T14:52:41.512Z,740
2017-09-04T14:53:42.190Z,684
2017-09-04T14:54:43.019Z,664
2017-09-04T14:55:43.793Z,672
2017-09-04T14:56:44.503Z,812
2017-09-04T14:57:45.284Z,840
2017-09-04T14:58:46.414Z,844
2017-09-04T14:59:47.196Z,844
2017-09-04T15:00:47.966Z,820
2017-09-04T15:01:48.811Z,780
2017-09-04T15:02:49.502Z,816
2017-09-04T15:03:50.331Z,812
2017-09-04T15:04:51.564Z,800
2017-09-04T15:05:52.386Z,812
2017-09-04T15:06:53.123Z,796
2017-09-04T15:07:53.897Z,804
2017-09-04T15:08:54.644Z,808
2017-09-04T15:09:55.573Z,816
2017-09-04T15:10:56.473Z,808
2017-09-04T15:11:57.204Z,800
2017-09-04T15:12:57.937Z,784
2017-09-04T15:13:58.843Z,768
2017-09-04T15:14:59.568Z,780
2017-09-04T15:16:00.334Z,792
2017-09-04T15:17:01.161Z,808
2017-09-04T15:18:02.316Z,800
2017-09-04T15:20:06.658Z,796
2017-09-04T15:21:11.751Z,804
2017-09-04T15:23:24.712Z,784
2017-09-04T15:24:25.771Z,768
2017-09-04T15:25:26.730Z,764
2017-09-04T15:26:27.738Z,764
2017-09-04T15:27:28.901Z,752
2017-09-04T15:28:29.611Z,744
2017-09-04T15:29:30.372Z,736
2017-09-04T15:30:31.743Z,728
2017-09-04T15:31:32.427Z,728
2017-09-04T15:32:33.173Z,728
2017-09-04T15:33:33.910Z,720
2017-09-04T15:34:34.765Z,708
2017-09-04T15:35:35.486Z,704
2017-09-04T15:36:36.181Z,700
2017-09-04T15:37:36.867Z,700
2017-09-04T15:38:37.626Z,708
2017-09-04T15:39:38.391Z,716
2017-09-04T15:40:39.149Z,708
2017-09-04T15:41:39.913Z,708
2017-09-04T15:42:40.670Z,700
2017-09-04T15:43:41.478Z,696
2017-09-04T15:44:42.197Z,648
2017-09-04T15:45:43.017Z,620
2017-09-04T15:46:43.723Z,624
2017-09-04T15:47:44.497Z,640
2017-09-04T15:48:45.243Z,636
2017-09-04T15:49:46.066Z,612
2017-09-04T15:50:46.853Z,604
2017-09-04T15:51:47.580Z,596
2017-09-04T15:52:48.384Z,588
2017-09-04T15:53:49.121Z,592
2017-09-04T15:54:49.882Z,600
2017-09-04T15:55:50.550Z,596
2017-09-04T15:56:51.332Z,600
2017-09-04T15:57:52.123Z,596
2017-09-04T15:58:52.943Z,600
2017-09-04T15:59:53.660Z,584
2017-09-04T16:00:54.519Z,584
2017-09-04T16:01:55.531Z,580
2017-09-04T16:02:56.319Z,576
2017-09-04T16:03:57.035Z,580
2017-09-04T16:04:57.818Z,576
2017-09-04T16:05:58.581Z,568
2017-09-04T16:06:59.313Z,556
2017-09-04T16:08:00.086Z,548
2017-09-04T16:09:00.784Z,544
2017-09-04T16:10:01.579Z,544
2017-09-04T16:11:02.286Z,536
2017-09-04T16:12:03.077Z,532
2017-09-04T16:13:03.994Z,532
2017-09-04T16:14:04.712Z,520
2017-09-04T16:15:05.474Z,512
2017-09-04T16:16:06.240Z,508
2017-09-04T16:17:06.990Z,500
2017-09-04T16:18:07.757Z,500
2017-09-04T16:19:08.439Z,496
2017-09-04T16:20:09.245Z,492
2017-09-04T16:21:10.117Z,488
2017-09-04T16:22:10.896Z,484
2017-09-04T16:23:11.704Z,476
2017-09-04T16:24:12.433Z,476
2017-09-04T16:25:13.194Z,472
2017-09-04T16:26:14.391Z,468
2017-09-04T16:27:15.092Z,468
2017-09-04T16:28:15.813Z,464
2017-09-04T16:29:16.519Z,464
2017-09-04T16:30:17.289Z,464
2017-09-04T16:31:18.068Z,456
2017-09-04T16:32:18.802Z,452
2017-09-04T16:33:19.515Z,448
2017-09-04T16:34:20.232Z,440
2017-09-04T16:35:20.982Z,432
2017-09-04T16:36:21.717Z,428
2017-09-04T16:37:22.567Z,420
2017-09-04T16:38:23.352Z,416
2017-09-04T16:39:24.096Z,412
2017-09-04T16:40:24.824Z,404
2017-09-04T16:41:25.551Z,396
2017-09-04T16:42:26.321Z,392
2017-09-04T16:43:27.090Z,388
2017-09-04T16:44:27.882Z,380
2017-09-04T16:45:28.688Z,368
2017-09-04T16:46:29.424Z,368
2017-09-04T16:47:30.125Z,364
2017-09-04T16:48:30.959Z,356
2017-09-04T16:49:31.654Z,352
2017-09-04T16:50:32.441Z,344
2017-09-04T16:51:33.239Z,340
2017-09-04T16:52:33.984Z,332
2017-09-04T16:53:34.709Z,328
2017-09-04T16:54:35.518Z,320
2017-09-04T16:55:36.200Z,316
2017-09-04T16:56:36.914Z,308
2017-09-04T16:57:37.700Z,304
2017-09-04T16:58:38.378Z,296
2017-09-04T16:59:39.128Z,292
2017-09-04T17:00:39.877Z,284
2017-09-04T17:01:40.632Z,276
2017-09-04T17:02:41.373Z,276
2017-09-04T17:03:42.140Z,268
2017-09-04T17:04:42.905Z,260
2017-09-04T17:05:43.639Z,256
2017-09-04T17:06:44.444Z,248
2017-09-04T17:07:45.144Z,244
2017-09-04T17:08:46.163Z,236
2017-09-04T17:09:46.845Z,228
2017-09-04T17:10:47.624Z,224
2017-09-04T17:11:48.308Z,220
2017-09-04T17:12:49.073Z,212
2017-09-04T17:13:49.836Z,208
2017-09-04T17:14:50.654Z,196
2017-09-04T17:15:51.384Z,192
2017-09-04T17:16:52.153Z,188
2017-09-04T17:17:52.894Z,184
2017-09-04T17:18:53.712Z,176
2017-09-04T17:19:54.452Z,168
2017-09-04T17:20:55.215Z,160
2017-09-04T17:21:55.918Z,156
2017-09-04T17:22:56.629Z,148
2017-09-04T17:23:57.427Z,144
2017-09-04T17:24:58.159Z,136
2017-09-04T17:25:58.931Z,128
2017-09-04T17:26:59.647Z,124
2017-09-04T17:28:00.412Z,120
2017-09-04T17:29:01.235Z,112
2017-09-04T17:30:01.933Z,104
2017-09-04T17:31:02.780Z,100
2017-09-04T17:32:03.480Z,96
2017-09-04T17:33:04.171Z,92
2017-09-04T17:34:04.963Z,84
2017-09-04T17:35:05.716Z,80
2017-09-04T17:36:06.520Z,72
2017-09-04T17:37:07.289Z,72
2017-09-04T17:38:08.025Z,64
2017-09-04T17:39:08.793Z,60
2017-09-04T17:40:09.575Z,56
2017-09-04T17:41:10.325Z,48
2017-09-04T17:42:11.026Z,48
2017-09-04T17:43:11.817Z,44
2017-09-04T17:44:12.542Z,40
2017-09-04T17:45:13.270Z,36
2017-09-04T17:46:13.988Z,36
2017-09-04T17:47:14.654Z,32
2017-09-04T17:48:15.409Z,28
2017-09-04T17:49:16.150Z,28
2017-09-04T17:50:16.873Z,20
2017-09-04T17:51:17.668Z,20
2017-09-04T17:52:18.522Z,20
2017-09-04T17:53:19.189Z,16
2017-09-04T17:54:20.005Z,16
2017-09-04T17:55:20.823Z,12
2017-09-04T17:56:21.636Z,12
2017-09-04T17:57:22.321Z,12
2017-09-04T17:58:23.132Z,12
2017-09-04T17:59:23.835Z,8
2017-09-04T18:00:24.684Z,8
2017-09-04T18:01:25.438Z,8
2017-09-04T18:02:26.163Z,4
2017-09-04T18:03:26.956Z,8
2017-09-04T18:04:27.686Z,4
2017-09-04T18:05:28.369Z,0
2017-09-04T18:06:29.266Z,4
2017-09-04T18:07:30.002Z,4
2017-09-04T18:08:30.734Z,0
2017-09-04T18:09:31.724Z,4
2017-09-04T18:10:32.392Z,0
2017-09-04T18:11:33.126Z,0
2017-09-04T18:12:33.917Z,0
2017-09-04T18:13:34.642Z,0
2017-09-04T18:14:35.320Z,0
2017-09-04T18:15:36.157Z,0
2017-09-04T18:16:36.888Z,0
2017-09-04T18:17:37.669Z,0
2017-09-04T18:18:38.423Z,0
2017-09-04T18:19:39.168Z,0
2017-09-04T18:20:39.891Z,0
2017-09-04T18:21:40.709Z,0
2017-09-04T18:22:41.393Z,0
2017-09-04T18:23:42.181Z,0
2017-09-04T18:24:42.998Z,0
2017-09-04T18:25:43.665Z,0
2017-09-04T18:26:44.478Z,0
2017-09-04T18:27:45.213Z,0
2017-09-04T18:28:45.966Z,0
2017-09-04T18:29:46.819Z,0
2017-09-04T18:30:47.900Z,0
2017-09-04T18:31:48.579Z,0
2017-09-04T18:32:49.326Z,0
2017-09-04T18:33:50.035Z,0
2017-09-04T18:34:50.793Z,0
2017-09-04T18:35:51.533Z,0
2017-09-04T18:36:52.229Z,0
2017-09-04T18:37:53.005Z,0
2017-09-04T18:38:53.830Z,0
2017-09-04T18:39:54.533Z,0
2017-09-04T18:40:55.378Z,0
2017-09-04T18:41:56.089Z,0
2017-09-04T18:42:56.881Z,0
2017-09-04T18:43:57.762Z,0
2017-09-04T18:44:58.463Z,0
2017-09-04T18:45:59.272Z,0
2017-09-04T18:46:59.989Z,0
2017-09-04T18:48:00.689Z,0
2017-09-04T18:49:01.437Z,0
2017-09-04T18:50:02.199Z,0
2017-09-04T18:51:02.979Z,0
2017-09-04T18:52:03.731Z,0
2017-09-04T18:53:04.433Z,0
2017-09-04T18:54:05.151Z,0
2017-09-04T18:55:05.918Z,0
2017-09-04T18:56:06.622Z,0
2017-09-04T18:57:07.422Z,0
2017-09-04T18:58:08.147Z,0
2017-09-04T18:59:09.063Z,0
2017-09-04T19:00:09.762Z,0
2017-09-04T19:01:10.542Z,0
2017-09-04T19:02:11.307Z,0
2017-09-04T19:03:12.001Z,0
2017-09-04T19:04:12.853Z,0
2017-09-04T19:05:13.709Z,0
2017-09-04T19:06:14.450Z,0
2017-09-04T19:07:15.174Z,0
2017-09-04T19:08:16.020Z,0
2017-09-04T19:09:16.698Z,0
2017-09-04T19:10:17.466Z,0
2017-09-04T19:11:18.180Z,0
2017-09-04T19:12:19.058Z,0
2017-09-04T19:13:19.716Z,0
2017-09-04T19:14:20.454Z,0
2017-09-04T19:15:21.283Z,0
2017-09-04T19:16:21.938Z,0
2017-09-04T19:17:22.649Z,0
2017-09-04T19:18:23.374Z,0
2017-09-04T19:19:24.739Z,0
2017-09-04T19:20:25.849Z,0
2017-09-04T19:21:26.572Z,0
2017-09-04T19:22:27.236Z,0
2017-09-04T19:23:28.040Z,0
2017-09-04T19:24:28.739Z,0
2017-09-04T19:25:29.472Z,0
2017-09-04T19:26:30.168Z,0
2017-09-04T19:27:30.917Z,0
2017-09-04T19:28:31.686Z,0
2017-09-04T19:29:32.412Z,0
2017-09-04T19:30:33.174Z,0
2017-09-04T19:31:33.933Z,0
2017-09-04T19:32:34.695Z,0
2017-09-04T19:33:35.434Z,0
2017-09-04T19:34:36.295Z,0
2017-09-04T19:35:37.012Z,0
2017-09-04T19:36:37.728Z,0
2017-09-04T19:37:38.427Z,0
2017-09-04T19:38:39.142Z,0
2017-09-04T19:39:39.897Z,0
2017-09-04T19:40:40.666Z,0
2017-09-04T19:41:41.350Z,0
2017-09-04T19:42:42.066Z,0
2017-09-04T19:43:42.831Z,0
2017-09-04T19:44:43.582Z,0
2017-09-04T19:45:44.416Z,0
2017-09-04T19:46:45.125Z,0
2017-09-04T19:47:45.970Z,0
2017-09-04T19:48:46.724Z,0
2017-09-04T19:49:47.465Z,0
2017-09-04T19:50:48.261Z,0
2017-09-04T19:51:48.914Z,0
2017-09-04T19:52:49.659Z,0
2017-09-04T19:53:50.457Z,0
2017-09-04T19:54:51.212Z,0
2017-09-04T19:55:51.902Z,0
2017-09-04T19:56:52.638Z,0
2017-09-04T19:57:53.394Z,0
2017-09-04T19:58:54.153Z,0
2017-09-04T19:59:54.920Z,0
2017-09-04T20:00:56.324Z,0
2017-09-04T20:01:57.240Z,0
2017-09-04T20:02:57.949Z,0
2017-09-04T20:03:58.678Z,0
2017-09-04T20:04:59.465Z,0
2017-09-04T20:06:00.253Z,0
2017-09-04T20:07:01.001Z,0
2017-09-04T20:08:01.692Z,0
2017-09-04T20:09:02.610Z,0
2017-09-04T20:10:03.369Z,0
2017-09-04T20:11:04.112Z,0
2017-09-04T20:12:04.908Z,0
2017-09-04T20:13:05.659Z,0
2017-09-04T20:14:06.339Z,0
2017-09-04T20:15:07.202Z,0
2017-09-04T20:16:07.910Z,0
2017-09-04T20:17:08.770Z,0
2017-09-04T20:18:09.582Z,0
2017-09-04T20:19:10.239Z,0
2017-09-04T20:20:10.930Z,0
2017-09-04T20:21:11.648Z,0
2017-09-04T20:22:12.351Z,0
2017-09-04T20:23:13.096Z,0
2017-09-04T20:24:13.930Z,0
2017-09-04T20:25:14.853Z,0
2017-09-04T20:26:15.661Z,0
2017-09-04T20:27:16.383Z,0
2017-09-04T20:28:17.140Z,0
2017-09-04T20:29:17.861Z,0
2017-09-04T20:30:18.723Z,0
2017-09-04T20:31:19.552Z,0
2017-09-04T20:32:20.280Z,0
2017-09-04T20:33:21.155Z,0
2017-09-04T20:34:22.069Z,0
2017-09-04T20:35:22.987Z,0